メインページ
METAR-TAF:

METAR-TAF

空港 :

Kashmar, イラン

緯度: 35-16-14N, 経度: 58-28-24E, 海抜: 1110m

現時点の気象観測

当レポートは1時間10分前の17:00(UTC)に作成
無風
気温 8°C
湿度 34%
気圧 1027 hPa
視程10km以上
1,500メートル以下は雲なし、積乱雲なし

METAR: OIMQ 171700Z 00000KT CAVOK 08/M07 Q1027

時間: 21:40 (18:10 UTC)


TAF: 見つかりません

4,000以上の空港の気象観測と天気予報(METAR報とTAF報)

利用可能な観測所は地図上に黄色い丸と赤い丸で示す。

丸の上にカーソルを重ねると観測所名を参照できる。

次にクリックすると気象観測と天気予報を参照できる。

マップの切り替え:黒色「×」印の緑ボタンをクリックして拡大、「-」印の緑ボタンをクリックして縮小、緑色の三角印をクリックして隣りの地図に切り替え


METAR-TAF: